createdAt,value
2023-07-14T00:01:25.494Z,21.38
2023-07-14T00:03:55.744Z,21.41
2023-07-14T00:06:25.489Z,21.40
2023-07-14T00:08:53.942Z,21.36
2023-07-14T00:11:24.210Z,21.36
2023-07-14T00:13:54.551Z,21.35
2023-07-14T00:16:24.480Z,21.36
2023-07-14T00:18:53.650Z,21.35
2023-07-14T00:21:23.808Z,21.38
2023-07-14T00:23:59.622Z,21.39
2023-07-14T00:26:31.099Z,21.38
2023-07-14T00:29:01.939Z,21.37
2023-07-14T00:31:40.745Z,21.38
2023-07-14T00:34:18.102Z,21.39
2023-07-14T00:36:46.956Z,21.37
2023-07-14T00:39:18.282Z,21.36
2023-07-14T00:41:46.288Z,21.35
2023-07-14T00:44:17.458Z,21.36
2023-07-14T00:46:45.841Z,21.37
2023-07-14T00:49:29.862Z,21.38
2023-07-14T00:52:00.212Z,21.40
2023-07-14T00:54:29.346Z,21.42
2023-07-14T00:56:59.371Z,21.41
2023-07-14T00:59:33.298Z,21.42
2023-07-14T01:02:21.764Z,21.41
2023-07-14T01:05:09.818Z,21.42
2023-07-14T01:07:43.309Z,21.45
2023-07-14T01:10:13.403Z,21.46
2023-07-14T01:12:47.424Z,21.47
2023-07-14T01:15:20.206Z,21.47
2023-07-14T01:17:52.993Z,21.48
2023-07-14T01:20:22.432Z,21.50
2023-07-14T01:23:06.505Z,21.53
2023-07-14T01:25:40.327Z,21.57
2023-07-14T01:28:14.312Z,21.61
2023-07-14T01:30:45.028Z,21.56
2023-07-14T01:33:16.670Z,21.61
2023-07-14T01:35:50.264Z,21.61
2023-07-14T01:38:18.918Z,21.56
2023-07-14T01:40:47.917Z,21.53
2023-07-14T01:43:16.832Z,21.51
2023-07-14T01:46:02.016Z,21.51
2023-07-14T01:49:00.538Z,21.53
2023-07-14T01:51:31.534Z,21.58
2023-07-14T01:54:43.875Z,21.58
2023-07-14T01:57:33.410Z,21.59
2023-07-14T02:00:07.533Z,21.58
2023-07-14T02:02:42.619Z,21.57
2023-07-14T02:05:12.341Z,21.56
2023-07-14T02:07:41.063Z,21.58
2023-07-14T02:10:19.580Z,21.62
2023-07-14T02:12:47.949Z,21.67
2023-07-14T02:15:19.900Z,21.68
2023-07-14T02:17:54.123Z,21.72
2023-07-14T02:21:06.434Z,21.47
2023-07-14T02:23:34.730Z,21.66
2023-07-14T02:26:08.173Z,21.67
2023-07-14T02:28:36.880Z,21.67
2023-07-14T02:31:21.525Z,21.68
2023-07-14T02:33:49.228Z,21.68
2023-07-14T02:36:39.575Z,21.65
2023-07-14T02:39:09.271Z,21.65
2023-07-14T02:41:39.944Z,21.62
2023-07-14T02:44:09.693Z,21.60
2023-07-14T02:46:54.799Z,21.61
2023-07-14T02:49:22.508Z,21.63
2023-07-14T02:51:51.391Z,21.66
2023-07-14T02:54:19.513Z,21.68
2023-07-14T02:57:14.066Z,21.68
2023-07-14T02:59:45.304Z,21.72
2023-07-14T03:02:13.585Z,21.70
2023-07-14T03:04:41.425Z,21.67
2023-07-14T03:07:10.368Z,21.77
2023-07-14T03:09:37.994Z,21.79
2023-07-14T03:12:07.980Z,21.82
2023-07-14T03:14:36.727Z,21.86
2023-07-14T03:17:06.495Z,21.90
2023-07-14T03:19:34.832Z,21.92
2023-07-14T03:22:42.909Z,22.09
2023-07-14T03:25:10.914Z,22.17
2023-07-14T03:27:39.313Z,22.13
2023-07-14T03:30:09.873Z,22.08
2023-07-14T03:32:37.646Z,22.11
2023-07-14T03:35:05.510Z,22.11
2023-07-14T03:37:32.731Z,22.02
2023-07-14T03:39:59.947Z,22.07
2023-07-14T03:42:26.935Z,22.05
2023-07-14T03:44:53.907Z,22.01
2023-07-14T03:47:20.811Z,21.96
2023-07-14T03:49:48.266Z,21.95
2023-07-14T03:52:15.041Z,21.92
2023-07-14T03:54:42.683Z,21.85
2023-07-14T03:57:09.449Z,21.82
2023-07-14T03:59:36.364Z,21.84
2023-07-14T04:02:06.557Z,21.82
2023-07-14T04:04:33.887Z,21.79
2023-07-14T04:07:02.938Z,21.75
2023-07-14T04:09:29.829Z,21.72
2023-07-14T04:11:58.853Z,21.72
2023-07-14T04:14:27.416Z,21.70
2023-07-14T04:16:56.935Z,21.69
2023-07-14T04:19:24.357Z,21.66
2023-07-14T04:21:55.354Z,21.65
2023-07-14T04:24:22.904Z,21.61
2023-07-14T04:26:52.141Z,21.60
2023-07-14T04:29:19.016Z,21.57
2023-07-14T04:31:48.118Z,21.52
2023-07-14T04:34:17.802Z,21.46
2023-07-14T04:36:47.135Z,21.42
2023-07-14T04:39:14.132Z,21.37
2023-07-14T04:41:45.043Z,21.34
2023-07-14T04:44:16.790Z,21.31
2023-07-14T04:46:45.238Z,21.26
2023-07-14T04:49:12.839Z,21.17
2023-07-14T04:51:40.393Z,21.05
2023-07-14T04:54:08.781Z,20.96
2023-07-14T04:56:36.869Z,20.90
2023-07-14T04:59:05.028Z,20.83
2023-07-14T05:01:32.349Z,20.80
2023-07-14T05:04:03.774Z,20.75
2023-07-14T05:06:32.621Z,20.70
2023-07-14T05:09:00.846Z,20.65
2023-07-14T05:11:28.388Z,20.64
2023-07-14T05:13:57.366Z,20.62
2023-07-14T05:16:24.663Z,20.61
2023-07-14T05:18:51.809Z,20.59
2023-07-14T05:21:19.132Z,20.58
2023-07-14T05:23:46.135Z,20.56
2023-07-14T05:26:13.597Z,20.57
2023-07-14T05:28:40.685Z,20.59
2023-07-14T05:31:07.937Z,20.61
2023-07-14T05:33:34.732Z,20.64
2023-07-14T05:36:01.987Z,20.65
2023-07-14T05:38:30.843Z,20.65
2023-07-14T05:40:59.209Z,20.67
2023-07-14T05:43:28.497Z,20.62
2023-07-14T05:45:55.450Z,20.49
2023-07-14T05:48:22.678Z,20.54
2023-07-14T05:50:49.797Z,20.59
2023-07-14T05:53:18.082Z,20.62
2023-07-14T05:55:45.198Z,20.64
2023-07-14T05:58:13.317Z,20.66
2023-07-14T06:00:40.665Z,20.69
2023-07-14T06:03:12.909Z,20.67
2023-07-14T06:05:41.426Z,20.66
2023-07-14T06:08:08.536Z,20.67
2023-07-14T06:10:36.516Z,20.69
2023-07-14T06:13:05.235Z,20.72
2023-07-14T06:15:32.343Z,20.79
2023-07-14T06:17:59.757Z,20.83
2023-07-14T06:20:29.208Z,20.86
2023-07-14T06:22:58.358Z,20.92
2023-07-14T06:25:25.174Z,20.93
2023-07-14T06:27:53.029Z,20.90
2023-07-14T06:30:19.974Z,21.00
2023-07-14T06:32:48.703Z,21.12
2023-07-14T06:35:16.879Z,21.16
2023-07-14T06:37:44.425Z,21.12
2023-07-14T06:40:12.918Z,21.17
2023-07-14T06:42:40.751Z,21.31
2023-07-14T06:45:09.692Z,21.42
2023-07-14T06:47:36.594Z,21.45
2023-07-14T06:50:04.282Z,21.41
2023-07-14T06:52:31.880Z,21.49
2023-07-14T06:54:59.064Z,21.59
2023-07-14T06:57:26.093Z,21.60
2023-07-14T06:59:53.474Z,21.53
2023-07-14T07:02:21.036Z,21.59
2023-07-14T07:04:47.912Z,21.67
2023-07-14T07:07:15.728Z,21.63
2023-07-14T07:09:44.411Z,21.64
2023-07-14T07:12:15.888Z,21.78
2023-07-14T07:14:43.738Z,21.82
2023-07-14T07:17:11.451Z,21.74
2023-07-14T07:19:39.972Z,21.85
2023-07-14T07:22:08.572Z,21.97
2023-07-14T07:24:36.185Z,21.91
2023-07-14T07:27:03.829Z,21.85
2023-07-14T07:29:31.036Z,21.90
2023-07-14T07:31:58.330Z,22.05
2023-07-14T07:34:25.488Z,22.07
2023-07-14T07:36:53.049Z,22.05
2023-07-14T07:39:21.169Z,22.13
2023-07-14T07:41:48.266Z,22.35
2023-07-14T07:44:15.224Z,22.31
2023-07-14T07:46:43.199Z,22.24
2023-07-14T07:49:11.727Z,22.36
2023-07-14T07:51:40.295Z,22.56
2023-07-14T07:54:07.791Z,22.65
2023-07-14T07:56:36.742Z,22.67
2023-07-14T07:59:03.857Z,22.65
2023-07-14T08:01:31.536Z,22.82
2023-07-14T08:03:59.285Z,22.93
2023-07-14T08:06:52.756Z,22.96
2023-07-14T08:09:20.159Z,23.01
2023-07-14T08:11:47.511Z,23.04
2023-07-14T08:14:18.353Z,23.14
2023-07-14T08:16:46.553Z,23.33
2023-07-14T08:19:16.347Z,23.67
2023-07-14T08:21:43.164Z,23.86
2023-07-14T08:24:10.263Z,24.08
2023-07-14T08:26:39.999Z,24.23
2023-07-14T08:29:07.970Z,24.26
2023-07-14T08:31:35.904Z,24.35
2023-07-14T08:34:04.879Z,24.55
2023-07-14T08:36:32.577Z,24.90
2023-07-14T08:39:00.945Z,25.21
2023-07-14T08:41:31.120Z,25.45
2023-07-14T08:44:24.489Z,25.55
2023-07-14T08:46:58.381Z,25.58
2023-07-14T08:49:34.641Z,25.60
2023-07-14T08:52:09.516Z,25.43
2023-07-14T08:54:51.239Z,25.43
2023-07-14T08:57:21.854Z,25.44
2023-07-14T08:59:48.868Z,25.55
2023-07-14T09:02:37.786Z,25.64
2023-07-14T09:05:17.777Z,25.73
2023-07-14T09:07:45.801Z,25.69
2023-07-14T09:10:13.229Z,25.72
2023-07-14T09:12:49.977Z,25.84
2023-07-14T09:15:24.015Z,25.97
2023-07-14T09:18:14.190Z,26.27
2023-07-14T09:21:01.239Z,26.62
2023-07-14T09:24:02.492Z,26.77
2023-07-14T09:26:34.873Z,26.71
2023-07-14T09:29:21.537Z,26.72
2023-07-14T09:31:52.421Z,26.70
2023-07-14T09:34:29.854Z,26.66
2023-07-14T09:36:59.122Z,26.68
2023-07-14T09:39:33.453Z,26.81
2023-07-14T09:42:01.826Z,26.93
2023-07-14T09:44:30.252Z,26.99
2023-07-14T09:46:57.480Z,27.04
2023-07-14T09:49:59.869Z,26.97
2023-07-14T09:52:27.893Z,26.91
2023-07-14T09:54:58.681Z,26.88
2023-07-14T09:57:38.391Z,26.83
2023-07-14T10:00:29.520Z,26.91
2023-07-14T10:03:07.673Z,27.11
2023-07-14T10:06:14.562Z,27.29
2023-07-14T10:08:50.533Z,27.19
2023-07-14T10:11:17.637Z,27.13
2023-07-14T10:13:53.560Z,27.18
2023-07-14T10:16:20.526Z,27.30
2023-07-14T10:18:58.337Z,27.43
2023-07-14T10:21:31.295Z,27.71
2023-07-14T10:24:01.276Z,27.93
2023-07-14T10:26:34.996Z,27.84
2023-07-14T10:29:14.827Z,27.69
2023-07-14T10:31:48.324Z,27.66
2023-07-14T10:34:24.060Z,27.59
2023-07-14T10:36:53.771Z,27.45
2023-07-14T10:39:53.258Z,27.59
2023-07-14T10:42:22.646Z,27.88
2023-07-14T10:44:49.777Z,27.99
2023-07-14T10:47:27.503Z,27.74
2023-07-14T10:50:13.417Z,27.55
2023-07-14T10:52:43.063Z,27.51
2023-07-14T10:55:17.594Z,27.43
2023-07-14T10:57:49.631Z,27.46
2023-07-14T11:00:48.247Z,27.57
2023-07-14T11:03:30.395Z,27.82
2023-07-14T11:06:20.823Z,27.99
2023-07-14T11:08:51.426Z,28.23
2023-07-14T11:11:31.257Z,28.26
2023-07-14T11:14:18.777Z,28.03
2023-07-14T11:16:51.585Z,27.64
2023-07-14T11:19:47.001Z,27.40
2023-07-14T11:22:42.722Z,27.01
2023-07-14T11:25:32.153Z,26.75
2023-07-14T11:28:52.231Z,26.61
2023-07-14T11:31:45.141Z,26.51
2023-07-14T11:34:38.274Z,26.38
2023-07-14T11:37:24.703Z,26.33
2023-07-14T11:39:58.722Z,26.33
2023-07-14T11:42:30.438Z,26.39
2023-07-14T11:44:57.915Z,26.46
2023-07-14T11:47:36.007Z,26.57
2023-07-14T11:50:38.231Z,26.78
2023-07-14T11:53:07.247Z,27.02
2023-07-14T11:55:37.116Z,27.26
2023-07-14T11:58:19.571Z,27.57
2023-07-14T12:00:57.792Z,27.81
2023-07-14T12:03:38.694Z,27.74
2023-07-14T12:06:15.016Z,27.51
2023-07-14T12:08:44.164Z,27.24
2023-07-14T12:11:39.677Z,27.01
2023-07-14T12:14:27.000Z,26.79
2023-07-14T12:16:54.428Z,26.53
2023-07-14T12:19:33.297Z,26.41
2023-07-14T12:22:11.572Z,26.37
2023-07-14T12:24:48.529Z,26.35
2023-07-14T12:27:18.323Z,26.29
2023-07-14T12:29:57.714Z,26.23
2023-07-14T12:32:25.788Z,26.18
2023-07-14T12:34:53.302Z,26.17
2023-07-14T12:37:22.089Z,26.14
2023-07-14T12:39:53.906Z,26.11
2023-07-14T12:42:21.878Z,26.08
2023-07-14T12:44:51.885Z,26.04
2023-07-14T12:47:19.384Z,25.99
2023-07-14T12:49:47.486Z,25.95
2023-07-14T12:52:16.632Z,25.98
2023-07-14T12:54:46.563Z,25.99
2023-07-14T12:57:16.307Z,25.99
2023-07-14T12:59:48.960Z,25.98
2023-07-14T13:02:16.012Z,26.02
2023-07-14T13:04:43.412Z,26.06
2023-07-14T13:07:19.332Z,26.13
2023-07-14T13:09:46.272Z,26.19
2023-07-14T13:12:14.350Z,26.27
2023-07-14T13:14:50.705Z,26.33
2023-07-14T13:17:23.838Z,26.39
2023-07-14T13:19:51.526Z,26.48
2023-07-14T13:22:20.207Z,26.53
2023-07-14T13:25:22.161Z,26.61
2023-07-14T13:27:49.671Z,26.72
2023-07-14T13:30:24.545Z,26.81
2023-07-14T13:32:57.597Z,26.97
2023-07-14T13:35:33.925Z,27.06
2023-07-14T13:38:06.476Z,27.08
2023-07-14T13:40:37.800Z,27.07
2023-07-14T13:43:17.611Z,27.02
2023-07-14T13:45:45.816Z,26.86
2023-07-14T13:48:24.970Z,26.71
2023-07-14T13:50:51.945Z,26.56
2023-07-14T13:53:19.014Z,26.35
2023-07-14T13:55:46.213Z,26.17
2023-07-14T13:58:14.146Z,26.04
2023-07-14T14:00:42.593Z,26.05
2023-07-14T14:03:10.112Z,26.02
2023-07-14T14:05:38.970Z,25.96
2023-07-14T14:08:15.435Z,25.94
2023-07-14T14:10:43.668Z,25.93
2023-07-14T14:13:21.474Z,25.89
2023-07-14T14:16:13.091Z,25.84
2023-07-14T14:18:40.605Z,25.82
2023-07-14T14:21:08.563Z,25.84
2023-07-14T14:23:41.081Z,25.81
2023-07-14T14:26:13.182Z,25.76
2023-07-14T14:28:41.584Z,25.77
2023-07-14T14:31:10.206Z,25.77
2023-07-14T14:33:38.860Z,25.73
2023-07-14T14:38:56.567Z,25.53
2023-07-14T14:41:27.964Z,25.85
2023-07-14T14:43:57.300Z,25.91
2023-07-14T14:46:24.500Z,26.05
2023-07-14T14:48:52.002Z,26.15
2023-07-14T14:51:19.068Z,26.27
2023-07-14T14:53:46.088Z,26.47
2023-07-14T14:56:32.591Z,26.48
2023-07-14T14:59:17.436Z,26.30
2023-07-14T15:01:47.086Z,26.10
2023-07-14T15:04:24.772Z,25.94
2023-07-14T15:06:53.101Z,25.85
2023-07-14T15:09:20.640Z,25.77
2023-07-14T15:11:50.220Z,25.70
2023-07-14T15:14:27.029Z,25.61
2023-07-14T15:16:54.184Z,25.51
2023-07-14T15:19:22.688Z,25.47
2023-07-14T15:21:50.851Z,25.45
2023-07-14T15:24:22.206Z,25.43
2023-07-14T15:26:49.337Z,25.40
2023-07-14T15:29:16.668Z,25.40
2023-07-14T15:31:45.661Z,25.45
2023-07-14T15:34:18.075Z,25.60
2023-07-14T15:36:46.774Z,25.69
2023-07-14T15:39:15.665Z,25.72
2023-07-14T15:41:44.077Z,25.79
2023-07-14T15:44:15.055Z,25.88
2023-07-14T15:46:43.828Z,25.94
2023-07-14T15:49:16.120Z,25.94
2023-07-14T15:51:46.849Z,25.91
2023-07-14T15:54:29.022Z,25.91
2023-07-14T15:57:01.784Z,26.07
2023-07-14T15:59:33.831Z,26.21
2023-07-14T16:02:01.072Z,26.31
2023-07-14T16:04:29.198Z,26.49
2023-07-14T16:07:00.455Z,26.74
2023-07-14T16:09:34.308Z,27.11
2023-07-14T16:12:02.930Z,27.55
2023-07-14T16:14:31.910Z,27.78
2023-07-14T16:17:01.888Z,27.74
2023-07-14T16:19:29.672Z,27.73
2023-07-14T16:21:56.869Z,27.81
2023-07-14T16:24:28.740Z,27.63
2023-07-14T16:26:56.803Z,27.50
2023-07-14T16:29:26.829Z,27.41
2023-07-14T16:32:20.376Z,27.46
2023-07-14T16:34:47.520Z,27.51
2023-07-14T16:37:20.609Z,27.56
2023-07-14T16:39:49.103Z,27.57
2023-07-14T16:42:18.906Z,27.56
2023-07-14T16:44:45.816Z,27.54
2023-07-14T16:47:13.874Z,27.51
2023-07-14T16:49:42.424Z,27.38
2023-07-14T16:52:22.250Z,27.25
2023-07-14T16:54:50.110Z,27.19
2023-07-14T16:57:32.830Z,27.10
2023-07-14T17:00:00.248Z,26.94
2023-07-14T17:02:27.355Z,26.78
2023-07-14T17:04:54.446Z,26.60
2023-07-14T17:07:24.156Z,26.39
2023-07-14T17:09:54.832Z,26.11
2023-07-14T17:12:22.838Z,25.86
2023-07-14T17:14:50.035Z,25.65
2023-07-14T17:17:17.601Z,25.45
2023-07-14T17:19:47.002Z,25.30
2023-07-14T17:22:14.570Z,25.16
2023-07-14T17:24:41.885Z,25.05
2023-07-14T17:27:17.788Z,24.95
2023-07-14T17:29:49.389Z,24.82
2023-07-14T17:32:18.703Z,24.69
2023-07-14T17:34:50.424Z,24.65
2023-07-14T17:37:22.698Z,24.67
2023-07-14T17:39:49.627Z,24.70
2023-07-14T17:42:19.086Z,24.71
2023-07-14T17:44:46.419Z,24.71
2023-07-14T17:47:13.349Z,24.70
2023-07-14T17:49:41.169Z,24.66
2023-07-14T17:52:15.152Z,24.61
2023-07-14T17:54:42.598Z,24.54
2023-07-14T17:57:19.203Z,24.49
2023-07-14T17:59:53.487Z,24.42
2023-07-14T18:02:22.338Z,24.34
2023-07-14T18:04:49.260Z,24.27
2023-07-14T18:07:17.441Z,24.18
2023-07-14T18:09:45.766Z,24.10
2023-07-14T18:12:16.878Z,24.03
2023-07-14T18:15:29.536Z,23.94
2023-07-14T18:17:59.395Z,23.85
2023-07-14T18:20:28.948Z,23.74
2023-07-14T18:22:59.418Z,23.68
2023-07-14T18:25:30.087Z,23.64
2023-07-14T18:28:00.445Z,23.59
2023-07-14T18:30:29.340Z,23.55
2023-07-14T18:32:58.322Z,23.50
2023-07-14T18:35:33.489Z,23.46
2023-07-14T18:38:03.847Z,23.43
2023-07-14T18:40:39.046Z,23.41
2023-07-14T18:43:06.156Z,23.39
2023-07-14T18:45:35.127Z,23.36
2023-07-14T18:48:10.459Z,23.31
2023-07-14T18:50:37.672Z,23.27
2023-07-14T18:53:14.414Z,23.22
2023-07-14T18:55:42.132Z,23.17
2023-07-14T18:58:15.893Z,23.12
2023-07-14T19:00:46.217Z,23.06
2023-07-14T19:03:17.503Z,23.02
2023-07-14T19:05:45.658Z,22.98
2023-07-14T19:08:13.094Z,22.93
2023-07-14T19:10:40.028Z,22.90
2023-07-14T19:13:17.700Z,22.87
2023-07-14T19:15:45.217Z,22.84
2023-07-14T19:18:19.029Z,22.79
2023-07-14T19:21:05.538Z,22.75
2023-07-14T19:23:32.782Z,22.70
2023-07-14T19:25:59.646Z,22.65
2023-07-14T19:28:30.076Z,22.61
2023-07-14T19:30:58.928Z,22.55
2023-07-14T19:33:31.590Z,22.53
2023-07-14T19:35:59.324Z,22.49
2023-07-14T19:38:27.601Z,22.43
2023-07-14T19:40:56.424Z,22.38
2023-07-14T19:43:25.998Z,22.36
2023-07-14T19:45:53.106Z,22.31
2023-07-14T19:48:20.836Z,22.28
2023-07-14T19:50:50.071Z,22.24
2023-07-14T19:53:31.246Z,22.20
2023-07-14T19:55:58.988Z,22.15
2023-07-14T19:58:28.832Z,22.11
2023-07-14T20:00:57.735Z,22.08
2023-07-14T20:03:28.799Z,22.02
2023-07-14T20:06:01.868Z,21.97
2023-07-14T20:08:30.205Z,21.92
2023-07-14T20:11:04.260Z,21.85
2023-07-14T20:13:32.061Z,21.79
2023-07-14T20:16:03.698Z,21.89
2023-07-14T20:18:31.178Z,21.88
2023-07-14T20:20:58.166Z,21.77
2023-07-14T20:23:29.136Z,21.69
2023-07-14T20:25:57.786Z,21.64
2023-07-14T20:28:36.714Z,21.59
2023-07-14T20:31:10.634Z,21.55
2023-07-14T20:33:37.802Z,21.51
2023-07-14T20:36:05.779Z,21.49
2023-07-14T20:38:32.907Z,21.49
2023-07-14T20:41:00.537Z,21.47
2023-07-14T20:43:32.382Z,21.45
2023-07-14T20:46:00.557Z,21.42
2023-07-14T20:48:30.499Z,21.40
2023-07-14T20:51:01.372Z,21.39
2023-07-14T20:53:29.444Z,21.36
2023-07-14T20:55:58.528Z,21.32
2023-07-14T20:58:27.728Z,21.29
2023-07-14T21:00:54.838Z,21.26
2023-07-14T21:03:33.399Z,21.24
2023-07-14T21:06:01.234Z,21.22
2023-07-14T21:08:33.646Z,21.20
2023-07-14T21:11:10.214Z,21.18
2023-07-14T21:13:48.186Z,21.14
2023-07-14T21:16:17.090Z,21.11
2023-07-14T21:18:44.509Z,21.07
2023-07-14T21:21:23.516Z,21.06
2023-07-14T21:23:51.526Z,21.08
2023-07-14T21:26:26.008Z,21.06
2023-07-14T21:28:54.896Z,21.04
2023-07-14T21:31:32.050Z,21.03
2023-07-14T21:34:00.761Z,21.02
2023-07-14T21:36:28.498Z,21.01
2023-07-14T21:38:58.091Z,21.00
2023-07-14T21:41:28.208Z,20.97
2023-07-14T21:43:55.426Z,20.94
2023-07-14T21:46:22.279Z,20.93
2023-07-14T21:48:49.555Z,20.89
2023-07-14T21:51:21.602Z,20.86
2023-07-14T21:53:50.667Z,20.82
2023-07-14T21:56:17.614Z,20.81
2023-07-14T21:58:44.582Z,20.79
2023-07-14T22:01:11.922Z,20.77
2023-07-14T22:03:39.222Z,20.75
2023-07-14T22:06:05.991Z,20.87
2023-07-14T22:08:36.417Z,20.90
2023-07-14T22:11:03.511Z,20.81
2023-07-14T22:13:32.025Z,20.75
2023-07-14T22:15:59.387Z,20.69
2023-07-14T22:18:44.336Z,20.65
2023-07-14T22:21:15.347Z,20.61
2023-07-14T22:23:44.174Z,20.64
2023-07-14T22:26:37.954Z,20.71
2023-07-14T22:29:04.993Z,20.60
2023-07-14T22:31:34.038Z,20.50
2023-07-14T22:34:04.246Z,20.45
2023-07-14T22:36:32.990Z,20.40
2023-07-14T22:39:00.243Z,20.50
2023-07-14T22:41:28.951Z,20.57
2023-07-14T22:43:58.724Z,20.46
2023-07-14T22:46:25.887Z,20.40
2023-07-14T22:48:53.171Z,20.37
2023-07-14T22:51:28.319Z,20.31
2023-07-14T22:53:56.605Z,20.30
2023-07-14T22:56:24.592Z,20.43
2023-07-14T22:58:51.725Z,20.36
2023-07-14T23:01:34.119Z,20.27
2023-07-14T23:04:01.205Z,20.19
2023-07-14T23:06:28.621Z,20.14
2023-07-14T23:08:58.173Z,20.09
2023-07-14T23:11:36.897Z,20.20
2023-07-14T23:14:05.695Z,20.21
2023-07-14T23:16:35.701Z,20.09
2023-07-14T23:19:02.528Z,20.03
2023-07-14T23:21:33.699Z,19.97
2023-07-14T23:24:03.213Z,20.02
2023-07-14T23:26:30.829Z,20.09
2023-07-14T23:28:57.879Z,19.98
2023-07-14T23:31:37.016Z,19.88
2023-07-14T23:34:10.956Z,19.82
2023-07-14T23:36:38.680Z,19.92
2023-07-14T23:39:05.372Z,19.94
2023-07-14T23:41:34.494Z,19.83
2023-07-14T23:44:03.102Z,19.75
2023-07-14T23:46:30.083Z,19.69
2023-07-14T23:48:57.572Z,19.79
2023-07-14T23:51:27.907Z,19.79
2023-07-14T23:53:55.132Z,19.67
2023-07-14T23:56:22.400Z,19.57
2023-07-14T23:58:50.234Z,19.52
